createdAt,value
2017-09-24T00:00:17.419Z,98.80
2017-09-24T00:02:45.088Z,98.80
2017-09-24T00:05:12.717Z,98.70
2017-09-24T00:07:40.355Z,98.30
2017-09-24T00:10:08.020Z,98.60
2017-09-24T00:12:35.662Z,99.40
2017-09-24T00:15:03.301Z,98.70
2017-09-24T00:17:30.972Z,98.30
2017-09-24T00:19:58.610Z,98.20
2017-09-24T00:22:26.239Z,98.50
2017-09-24T00:24:54.192Z,99.00
2017-09-24T00:27:21.826Z,99.30
2017-09-24T00:29:49.456Z,99.50
2017-09-24T00:32:17.132Z,99.30
2017-09-24T00:34:44.771Z,99.50
2017-09-24T00:37:12.400Z,99.60
2017-09-24T00:39:40.832Z,99.90
2017-09-24T00:42:08.464Z,99.90
2017-09-24T00:44:36.084Z,99.90
2017-09-24T00:47:03.743Z,99.90
2017-09-24T00:49:31.375Z,99.90
2017-09-24T00:51:59.010Z,99.90
2017-09-24T00:54:26.676Z,99.90
2017-09-24T00:56:54.307Z,99.90
2017-09-24T00:59:21.948Z,99.90
2017-09-24T01:01:49.620Z,99.90
2017-09-24T01:04:17.278Z,99.90
2017-09-24T01:06:44.908Z,99.90
2017-09-24T01:09:12.567Z,99.90
2017-09-24T01:11:40.213Z,99.90
2017-09-24T01:14:07.844Z,99.60
2017-09-24T01:16:35.512Z,99.40
2017-09-24T01:19:03.144Z,98.60
2017-09-24T01:21:30.818Z,98.90
2017-09-24T01:23:58.476Z,99.70
2017-09-24T01:26:26.104Z,99.80
2017-09-24T01:28:53.739Z,99.10
2017-09-24T01:31:21.397Z,99.60
2017-09-24T01:33:49.027Z,99.90
2017-09-24T01:36:16.655Z,99.50
2017-09-24T01:38:44.319Z,99.00
2017-09-24T01:41:11.959Z,99.20
2017-09-24T01:43:39.586Z,99.80
2017-09-24T01:46:07.249Z,99.90
2017-09-24T01:48:34.880Z,99.70
2017-09-24T01:51:02.520Z,99.70
2017-09-24T01:53:30.184Z,99.90
2017-09-24T01:55:57.846Z,99.90
2017-09-24T01:58:25.480Z,99.90
2017-09-24T02:00:53.147Z,99.90
2017-09-24T02:03:20.777Z,99.90
2017-09-24T02:05:48.413Z,99.90
2017-09-24T02:08:16.075Z,99.90
2017-09-24T02:10:43.712Z,99.90
2017-09-24T02:13:11.348Z,99.90
2017-09-24T02:15:39.017Z,99.90
2017-09-24T02:18:06.652Z,99.90
2017-09-24T02:20:34.284Z,99.90
2017-09-24T02:23:01.948Z,99.90
2017-09-24T02:25:29.585Z,99.90
2017-09-24T02:27:57.220Z,99.90
2017-09-24T02:30:24.889Z,99.90
2017-09-24T02:32:52.533Z,99.90
2017-09-24T02:35:20.167Z,99.90
2017-09-24T02:37:47.833Z,99.90
2017-09-24T02:40:15.465Z,99.90
2017-09-24T02:42:43.099Z,99.90
2017-09-24T02:45:10.770Z,99.90
2017-09-24T02:47:38.412Z,99.90
2017-09-24T02:50:06.052Z,99.60
2017-09-24T02:52:33.735Z,99.90
2017-09-24T02:55:01.363Z,99.90
2017-09-24T02:57:28.996Z,99.90
2017-09-24T02:59:56.655Z,99.90
2017-09-24T03:02:24.292Z,99.90
2017-09-24T03:04:51.926Z,99.90
2017-09-24T03:07:19.592Z,99.90
2017-09-24T03:09:47.228Z,99.90
2017-09-24T03:12:14.863Z,99.90
2017-09-24T03:14:43.179Z,99.80
2017-09-24T03:17:10.816Z,99.70
2017-09-24T03:19:38.441Z,99.90
2017-09-24T03:22:06.117Z,99.90
2017-09-24T03:24:33.756Z,99.90
2017-09-24T03:27:01.400Z,99.90
2017-09-24T03:29:29.085Z,99.90
2017-09-24T03:31:57.495Z,99.90
2017-09-24T03:34:25.127Z,99.90
2017-09-24T03:36:53.260Z,99.90
2017-09-24T03:39:20.913Z,99.90
2017-09-24T03:41:48.548Z,99.90
2017-09-24T03:44:16.992Z,99.90
2017-09-24T03:46:44.633Z,99.90
2017-09-24T03:49:12.275Z,99.90
2017-09-24T03:51:39.932Z,99.90
2017-09-24T03:54:07.563Z,99.90
2017-09-24T03:56:35.196Z,99.90
2017-09-24T03:59:02.878Z,99.90
2017-09-24T04:01:31.280Z,99.90
2017-09-24T04:03:58.917Z,99.90
2017-09-24T04:06:26.580Z,99.90
2017-09-24T04:08:54.220Z,99.90
2017-09-24T04:11:21.856Z,99.90
2017-09-24T04:13:49.520Z,99.90
2017-09-24T04:16:17.150Z,99.90
2017-09-24T04:18:44.783Z,99.90
2017-09-24T04:21:13.220Z,99.90
2017-09-24T04:23:40.857Z,99.90
2017-09-24T04:26:08.497Z,99.90
2017-09-24T04:28:36.164Z,99.90
2017-09-24T04:31:03.794Z,99.90
2017-09-24T04:33:31.428Z,99.90
2017-09-24T04:35:59.093Z,99.90
2017-09-24T04:38:26.777Z,99.90
2017-09-24T04:40:54.439Z,99.90
2017-09-24T04:43:22.106Z,99.90
2017-09-24T04:45:49.747Z,99.90
2017-09-24T04:48:17.380Z,99.90
2017-09-24T04:50:45.046Z,99.90
2017-09-24T04:53:12.676Z,99.90
2017-09-24T04:55:40.375Z,99.90
2017-09-24T04:58:08.043Z,99.90
2017-09-24T05:00:36.435Z,99.90
2017-09-24T05:03:04.071Z,99.90
2017-09-24T05:05:31.735Z,99.90
2017-09-24T05:07:59.363Z,99.90
2017-09-24T05:10:26.996Z,99.90
2017-09-24T05:12:55.425Z,99.90
2017-09-24T05:15:23.056Z,99.90
2017-09-24T05:17:50.687Z,99.90
2017-09-24T05:20:18.344Z,99.90
2017-09-24T05:22:45.976Z,99.90
2017-09-24T05:25:13.616Z,99.90
2017-09-24T05:27:41.281Z,99.90
2017-09-24T05:30:08.924Z,99.90
2017-09-24T05:32:36.556Z,99.90
2017-09-24T05:35:04.220Z,99.90
2017-09-24T05:37:31.849Z,99.90
2017-09-24T05:39:59.500Z,99.90
2017-09-24T05:42:27.155Z,99.90
2017-09-24T05:44:54.792Z,99.90
2017-09-24T05:47:22.422Z,99.90
2017-09-24T05:49:50.082Z,99.90
2017-09-24T05:52:17.720Z,99.90
2017-09-24T05:54:45.353Z,99.90
2017-09-24T05:57:13.784Z,99.90
2017-09-24T05:59:41.427Z,99.90
2017-09-24T06:02:09.065Z,99.90
2017-09-24T06:04:36.736Z,99.90
2017-09-24T06:07:04.372Z,99.90
2017-09-24T06:09:32.031Z,99.90
2017-09-24T06:11:59.702Z,99.90
2017-09-24T06:14:28.103Z,99.90
2017-09-24T06:16:55.767Z,99.90
2017-09-24T06:19:23.433Z,99.90
2017-09-24T06:21:51.572Z,99.90
2017-09-24T06:24:20.041Z,99.90
2017-09-24T06:26:47.699Z,99.90
2017-09-24T06:29:15.340Z,99.90
2017-09-24T06:31:43.001Z,99.90
2017-09-24T06:34:12.778Z,99.90
2017-09-24T06:36:40.416Z,99.90
2017-09-24T06:39:08.421Z,99.90
2017-09-24T06:41:42.681Z,99.90
2017-09-24T06:44:11.252Z,99.90
2017-09-24T06:46:39.045Z,99.90
2017-09-24T06:49:06.703Z,99.90
2017-09-24T06:51:34.344Z,99.90
2017-09-24T06:54:01.975Z,99.90
2017-09-24T06:56:30.409Z,99.90
2017-09-24T06:58:58.039Z,99.90
2017-09-24T07:01:25.672Z,99.90
2017-09-24T07:03:53.336Z,99.90
2017-09-24T07:06:21.332Z,99.90
2017-09-24T07:08:49.730Z,99.90
2017-09-24T07:11:17.406Z,99.90
2017-09-24T07:13:45.043Z,99.90
2017-09-24T07:16:13.856Z,99.90
2017-09-24T07:18:41.519Z,99.90
2017-09-24T07:21:09.912Z,99.90
2017-09-24T07:23:38.477Z,99.90
2017-09-24T07:26:06.166Z,99.90
2017-09-24T07:28:33.803Z,99.90
2017-09-24T07:31:01.616Z,99.90
2017-09-24T07:33:29.279Z,99.90
2017-09-24T07:35:56.913Z,99.90
2017-09-24T07:38:24.548Z,99.90
2017-09-24T07:40:52.208Z,99.90
2017-09-24T07:43:19.847Z,99.90
2017-09-24T07:45:47.481Z,99.90
2017-09-24T07:48:15.140Z,99.90
2017-09-24T07:50:42.787Z,99.90
2017-09-24T07:53:10.426Z,99.90
2017-09-24T07:55:38.099Z,99.90
2017-09-24T07:58:05.746Z,99.90
2017-09-24T08:00:33.414Z,99.90
2017-09-24T08:03:01.082Z,99.90
2017-09-24T08:05:28.716Z,99.90
2017-09-24T08:07:56.360Z,99.90
2017-09-24T08:10:24.021Z,99.90
2017-09-24T08:12:51.655Z,99.90
2017-09-24T08:15:19.319Z,99.90
2017-09-24T08:17:47.747Z,99.90
2017-09-24T08:20:15.399Z,99.90
2017-09-24T08:22:43.036Z,99.90
2017-09-24T08:25:10.704Z,99.90
2017-09-24T08:27:38.331Z,99.90
2017-09-24T08:30:06.018Z,99.90
2017-09-24T08:32:33.679Z,99.90
2017-09-24T08:35:02.111Z,99.90
2017-09-24T08:37:29.748Z,99.90
2017-09-24T08:39:57.416Z,99.90
2017-09-24T08:42:25.051Z,99.90
2017-09-24T08:44:52.712Z,99.90
2017-09-24T08:47:20.375Z,99.90
2017-09-24T08:49:48.008Z,99.90
2017-09-24T08:52:15.648Z,99.90
2017-09-24T08:54:43.343Z,99.90
2017-09-24T08:57:10.970Z,99.90
2017-09-24T08:59:38.696Z,99.40
2017-09-24T09:02:06.368Z,99.90
2017-09-24T09:04:34.077Z,99.90
2017-09-24T09:07:01.711Z,99.90
2017-09-24T09:09:29.389Z,99.90
2017-09-24T09:11:57.796Z,99.90
2017-09-24T09:14:25.445Z,99.90
2017-09-24T09:16:53.140Z,99.90
2017-09-24T09:19:20.771Z,99.90
2017-09-24T09:21:48.408Z,99.90
2017-09-24T09:24:16.078Z,99.90
2017-09-24T09:26:43.711Z,99.90
2017-09-24T09:29:11.347Z,99.90
2017-09-24T09:31:39.014Z,99.90
2017-09-24T09:34:18.388Z,99.90
2017-09-24T09:36:46.069Z,99.90
2017-09-24T09:39:13.698Z,99.90
2017-09-24T09:41:41.327Z,99.90
2017-09-24T09:44:20.706Z,99.90
2017-09-24T09:46:58.773Z,99.90
2017-09-24T09:49:26.424Z,99.90
2017-09-24T09:51:54.061Z,99.90
2017-09-24T09:54:21.691Z,99.90
2017-09-24T09:56:49.355Z,99.90
2017-09-24T09:59:16.988Z,99.90
2017-09-24T10:01:44.631Z,99.90
2017-09-24T10:04:12.297Z,99.90
2017-09-24T10:06:51.712Z,99.90
2017-09-24T10:09:31.107Z,99.90
2017-09-24T10:11:58.744Z,99.90
2017-09-24T10:14:26.371Z,99.90
2017-09-24T10:16:54.088Z,99.90
2017-09-24T10:19:21.723Z,99.90
2017-09-24T10:21:49.358Z,98.70
2017-09-24T10:24:17.023Z,99.30
2017-09-24T10:26:44.663Z,99.90
2017-09-24T10:29:24.329Z,99.20
2017-09-24T10:32:01.484Z,99.90
2017-09-24T10:34:29.150Z,99.90
2017-09-24T10:36:56.779Z,99.90
2017-09-24T10:39:26.064Z,99.90
2017-09-24T10:41:53.750Z,99.90
2017-09-24T10:44:21.375Z,99.90
2017-09-24T10:46:49.777Z,99.90
2017-09-24T10:49:17.455Z,99.90
2017-09-24T10:51:45.119Z,99.90
2017-09-24T10:54:12.749Z,99.90
2017-09-24T10:56:40.408Z,99.90
2017-09-24T10:59:08.044Z,99.60
2017-09-24T11:01:35.672Z,99.70
2017-09-24T11:04:03.349Z,98.80
2017-09-24T11:06:30.991Z,99.90
2017-09-24T11:08:58.619Z,98.70
2017-09-24T11:11:28.394Z,98.20
2017-09-24T11:13:56.024Z,98.60
2017-09-24T11:16:23.646Z,98.30
2017-09-24T11:18:52.082Z,99.50
2017-09-24T11:21:19.993Z,99.50
2017-09-24T11:23:48.108Z,98.30
2017-09-24T11:26:16.546Z,99.90
2017-09-24T11:28:44.244Z,99.90
2017-09-24T11:31:11.883Z,99.70
2017-09-24T11:33:39.564Z,99.20
2017-09-24T11:36:07.194Z,99.80
2017-09-24T11:38:34.852Z,96.90
2017-09-24T11:41:02.540Z,96.50
2017-09-24T11:43:30.204Z,96.10
2017-09-24T11:45:58.614Z,97.00
2017-09-24T11:48:26.280Z,96.90
2017-09-24T11:50:53.910Z,98.70
2017-09-24T11:53:21.531Z,99.50
2017-09-24T11:55:49.224Z,98.90
2017-09-24T11:58:16.852Z,98.60
2017-09-24T12:00:44.523Z,97.50
2017-09-24T12:03:12.187Z,98.50
2017-09-24T12:05:39.820Z,97.60
2017-09-24T12:08:07.543Z,98.60
2017-09-24T12:10:35.224Z,96.90
2017-09-24T12:13:02.847Z,96.30
2017-09-24T12:15:30.497Z,95.40
2017-09-24T12:17:58.167Z,95.80
2017-09-24T12:20:25.798Z,96.20
2017-09-24T12:22:53.436Z,95.30
2017-09-24T12:25:21.108Z,95.50
2017-09-24T12:27:48.743Z,97.10
2017-09-24T12:30:16.375Z,96.50
2017-09-24T12:32:44.061Z,95.50
2017-09-24T12:35:12.451Z,94.00
2017-09-24T12:37:40.083Z,93.90
2017-09-24T12:40:07.752Z,96.10
2017-09-24T12:42:35.380Z,96.90
2017-09-24T12:45:03.008Z,96.90
2017-09-24T12:47:31.449Z,95.20
2017-09-24T12:49:59.083Z,95.20
2017-09-24T12:52:26.711Z,94.80
2017-09-24T12:54:54.373Z,96.20
2017-09-24T12:57:22.012Z,95.40
2017-09-24T12:59:49.649Z,94.60
2017-09-24T13:02:17.311Z,94.70
2017-09-24T13:04:44.956Z,95.20
2017-09-24T13:07:12.593Z,96.00
2017-09-24T13:09:40.258Z,94.20
2017-09-24T13:12:07.896Z,95.40
2017-09-24T13:14:35.528Z,95.00
2017-09-24T13:17:03.212Z,95.20
2017-09-24T13:19:30.840Z,96.40
2017-09-24T13:21:58.648Z,96.80
2017-09-24T13:24:26.381Z,95.20
2017-09-24T13:26:54.771Z,93.90
2017-09-24T13:29:22.395Z,93.90
2017-09-24T13:31:50.816Z,93.30
2017-09-24T13:34:18.435Z,93.30
2017-09-24T13:36:46.056Z,95.20
2017-09-24T13:39:13.716Z,94.20
2017-09-24T13:41:41.338Z,94.00
2017-09-24T13:44:09.732Z,89.40
2017-09-24T13:46:37.410Z,89.40
2017-09-24T13:49:05.064Z,88.90
2017-09-24T13:51:32.703Z,86.80
2017-09-24T13:54:00.363Z,87.70
2017-09-24T13:56:27.984Z,90.10
2017-09-24T13:58:55.620Z,89.90
2017-09-24T14:01:23.287Z,88.80
2017-09-24T14:03:50.921Z,86.70
2017-09-24T14:06:18.547Z,86.60
2017-09-24T14:08:46.207Z,87.60
2017-09-24T14:11:13.839Z,88.50
2017-09-24T14:13:41.932Z,89.90
2017-09-24T14:16:09.588Z,89.60
2017-09-24T14:18:37.219Z,90.90
2017-09-24T14:21:04.859Z,93.50
2017-09-24T14:23:33.963Z,93.70
2017-09-24T14:26:01.617Z,94.10
2017-09-24T14:28:29.298Z,94.50
2017-09-24T14:30:56.973Z,97.00
2017-09-24T14:33:24.608Z,94.20
2017-09-24T14:35:52.239Z,93.30
2017-09-24T14:38:19.903Z,92.50
2017-09-24T14:40:47.527Z,95.20
2017-09-24T14:43:15.923Z,94.50
2017-09-24T14:45:43.588Z,94.40
2017-09-24T14:48:11.206Z,96.20
2017-09-24T14:50:38.836Z,95.60
2017-09-24T14:53:06.490Z,92.80
2017-09-24T14:55:34.120Z,91.70
2017-09-24T14:58:02.502Z,91.70
2017-09-24T15:00:30.167Z,91.70
2017-09-24T15:02:57.800Z,92.00
2017-09-24T15:05:25.431Z,94.20
2017-09-24T15:07:53.865Z,94.50
2017-09-24T15:10:21.500Z,94.40
2017-09-24T15:12:49.123Z,95.70
2017-09-24T15:15:16.804Z,97.00
2017-09-24T15:17:44.516Z,97.60
2017-09-24T15:20:12.151Z,98.80
2017-09-24T15:22:39.815Z,99.90
2017-09-24T15:25:07.450Z,99.90
2017-09-24T15:27:36.589Z,99.90
2017-09-24T15:30:05.036Z,99.90
2017-09-24T15:32:34.126Z,99.90
2017-09-24T15:35:02.281Z,99.90
2017-09-24T15:37:29.956Z,99.90
2017-09-24T15:39:58.364Z,99.90
2017-09-24T15:42:25.998Z,99.90
2017-09-24T15:44:54.127Z,99.90
2017-09-24T15:47:22.576Z,99.90
2017-09-24T15:49:50.288Z,99.90
2017-09-24T15:52:18.041Z,99.90
2017-09-24T15:54:45.685Z,99.90
2017-09-24T15:57:13.315Z,99.90
2017-09-24T15:59:40.978Z,99.90
2017-09-24T16:02:08.619Z,99.90
2017-09-24T16:04:36.253Z,99.90
2017-09-24T16:07:03.936Z,99.90
2017-09-24T16:09:31.575Z,99.90
2017-09-24T16:11:59.216Z,99.90
2017-09-24T16:14:27.328Z,99.70
2017-09-24T16:16:54.964Z,99.80
2017-09-24T16:19:22.600Z,99.90
2017-09-24T16:21:51.032Z,99.90
2017-09-24T16:24:18.664Z,99.90
2017-09-24T16:26:46.320Z,99.90
2017-09-24T16:29:13.992Z,99.90
2017-09-24T16:31:41.625Z,99.90
2017-09-24T16:34:09.293Z,99.90
2017-09-24T16:36:36.984Z,99.90
2017-09-24T16:39:04.622Z,99.90
2017-09-24T16:41:32.254Z,99.90
2017-09-24T16:43:59.924Z,99.90
2017-09-24T16:46:27.563Z,99.90
2017-09-24T16:48:55.200Z,99.90
2017-09-24T16:51:22.873Z,99.90
2017-09-24T16:53:50.504Z,99.90
2017-09-24T16:56:18.135Z,99.90
2017-09-24T16:58:45.805Z,99.90
2017-09-24T17:01:13.447Z,99.90
2017-09-24T17:03:41.080Z,99.90
2017-09-24T17:06:08.741Z,99.90
2017-09-24T17:08:36.371Z,99.90
2017-09-24T17:11:04.000Z,99.90
2017-09-24T17:13:32.597Z,99.90
2017-09-24T17:16:00.223Z,99.90
2017-09-24T17:18:27.856Z,99.90
2017-09-24T17:20:56.289Z,99.90
2017-09-24T17:23:23.927Z,99.90
2017-09-24T17:25:51.560Z,99.90
2017-09-24T17:28:19.231Z,99.90
2017-09-24T17:30:46.872Z,99.90
2017-09-24T17:33:14.822Z,99.90
2017-09-24T17:35:42.489Z,99.90
2017-09-24T17:38:10.128Z,99.90
2017-09-24T17:40:37.769Z,99.90
2017-09-24T17:43:05.433Z,99.90
2017-09-24T17:45:33.070Z,99.90
2017-09-24T17:48:00.713Z,99.90
2017-09-24T17:50:28.376Z,99.90
2017-09-24T17:52:56.003Z,99.90
2017-09-24T17:55:23.664Z,99.90
2017-09-24T17:57:51.338Z,99.90
2017-09-24T18:00:19.018Z,99.90
2017-09-24T18:02:46.670Z,99.90
2017-09-24T18:05:14.539Z,99.90
2017-09-24T18:07:42.239Z,99.90
2017-09-24T18:10:09.870Z,99.90
2017-09-24T18:12:37.532Z,99.90
2017-09-24T18:15:05.173Z,99.90
2017-09-24T18:17:32.812Z,99.90
2017-09-24T18:20:00.476Z,99.90
2017-09-24T18:22:28.112Z,99.90
2017-09-24T18:24:55.744Z,99.90
2017-09-24T18:27:24.192Z,99.90
2017-09-24T18:29:51.826Z,99.90
2017-09-24T18:32:19.457Z,99.90
2017-09-24T18:34:50.797Z,99.90
2017-09-24T18:37:19.464Z,99.90
2017-09-24T18:39:48.237Z,99.90
2017-09-24T18:42:17.135Z,99.90
2017-09-24T18:44:44.868Z,99.90
2017-09-24T18:47:12.503Z,99.90
2017-09-24T18:49:40.168Z,99.90
2017-09-24T18:52:07.804Z,99.90
2017-09-24T18:54:35.435Z,99.90
2017-09-24T18:57:03.117Z,99.90
2017-09-24T18:59:30.752Z,99.90
2017-09-24T19:01:58.399Z,99.90
2017-09-24T19:04:26.099Z,99.90
2017-09-24T19:06:53.741Z,99.90
2017-09-24T19:09:21.447Z,99.90
2017-09-24T19:11:49.216Z,99.90
2017-09-24T19:14:17.675Z,99.90
2017-09-24T19:16:45.315Z,99.90
2017-09-24T19:19:13.000Z,99.90
2017-09-24T19:21:40.632Z,99.90
2017-09-24T19:24:09.036Z,99.90
2017-09-24T19:26:36.699Z,99.90
2017-09-24T19:29:04.331Z,99.90
2017-09-24T19:31:31.996Z,99.90
2017-09-24T19:33:59.661Z,99.90
2017-09-24T19:36:27.295Z,99.90
2017-09-24T19:38:54.943Z,99.90
2017-09-24T19:41:22.623Z,99.90
2017-09-24T19:43:51.024Z,99.90
2017-09-24T19:46:18.659Z,99.90
2017-09-24T19:48:46.336Z,99.90
2017-09-24T19:51:13.968Z,99.90
2017-09-24T19:53:41.675Z,99.90
2017-09-24T19:56:10.111Z,99.90
2017-09-24T19:58:37.749Z,99.90
2017-09-24T20:01:05.383Z,99.90
2017-09-24T20:03:33.056Z,99.90
2017-09-24T20:06:00.687Z,99.90
2017-09-24T20:08:28.338Z,99.90
2017-09-24T20:10:56.143Z,99.90
2017-09-24T20:13:23.780Z,99.90
2017-09-24T20:15:51.406Z,99.90
2017-09-24T20:18:19.850Z,99.90
2017-09-24T20:20:47.528Z,99.90
2017-09-24T20:23:15.923Z,99.90
2017-09-24T20:25:43.588Z,99.90
2017-09-24T20:28:11.221Z,99.90
2017-09-24T20:30:38.850Z,99.90
2017-09-24T20:33:06.522Z,99.90
2017-09-24T20:35:34.146Z,99.90
2017-09-24T20:38:01.776Z,99.90
2017-09-24T20:40:29.431Z,99.90
2017-09-24T20:42:57.059Z,99.90
2017-09-24T20:45:25.470Z,99.90
2017-09-24T20:47:53.204Z,99.90
2017-09-24T20:50:20.836Z,99.90
2017-09-24T20:52:48.462Z,99.90
2017-09-24T20:55:16.897Z,99.90
2017-09-24T20:57:44.539Z,99.90
2017-09-24T21:00:12.173Z,99.90
2017-09-24T21:02:39.863Z,99.90
2017-09-24T21:05:07.542Z,99.90
2017-09-24T21:07:35.176Z,99.90
2017-09-24T21:10:02.843Z,99.90
2017-09-24T21:12:30.565Z,99.90
2017-09-24T21:14:58.964Z,99.90
2017-09-24T21:17:26.623Z,99.90
2017-09-24T21:19:54.256Z,99.90
2017-09-24T21:22:21.892Z,99.90
2017-09-24T21:24:49.575Z,99.90
2017-09-24T21:27:17.280Z,99.90
2017-09-24T21:29:44.915Z,99.90
2017-09-24T21:32:13.349Z,99.90
2017-09-24T21:34:40.988Z,99.90
2017-09-24T21:37:08.620Z,99.90
2017-09-24T21:39:36.287Z,99.90
2017-09-24T21:42:03.919Z,99.90
2017-09-24T21:44:31.645Z,99.90
2017-09-24T21:46:59.320Z,99.90
2017-09-24T21:49:26.980Z,99.90
2017-09-24T21:51:54.630Z,99.90
2017-09-24T21:54:22.314Z,99.90
2017-09-24T21:56:49.959Z,99.90
2017-09-24T21:59:17.591Z,99.90
2017-09-24T22:01:46.028Z,99.90
2017-09-24T22:04:13.663Z,99.90
2017-09-24T22:06:41.302Z,99.90
2017-09-24T22:09:08.991Z,99.90
2017-09-24T22:11:37.386Z,99.90
2017-09-24T22:14:05.015Z,99.90
2017-09-24T22:16:32.683Z,99.90
2017-09-24T22:19:00.319Z,99.90
2017-09-24T22:21:27.947Z,99.90
2017-09-24T22:23:56.371Z,99.90
2017-09-24T22:26:24.003Z,99.90
2017-09-24T22:28:51.639Z,99.90
2017-09-24T22:31:19.316Z,99.90
2017-09-24T22:33:46.948Z,99.90
2017-09-24T22:36:14.586Z,99.90
2017-09-24T22:38:42.250Z,99.90
2017-09-24T22:41:09.885Z,99.90
2017-09-24T22:43:37.523Z,99.90
2017-09-24T22:46:05.193Z,99.90
2017-09-24T22:48:32.823Z,99.90
2017-09-24T22:51:00.455Z,99.90
2017-09-24T22:53:28.120Z,99.90
2017-09-24T22:55:55.749Z,99.90
2017-09-24T22:58:23.377Z,99.90
2017-09-24T23:00:51.053Z,99.90
2017-09-24T23:03:18.681Z,99.90
2017-09-24T23:05:46.317Z,99.90
2017-09-24T23:08:13.979Z,99.90
2017-09-24T23:10:41.604Z,99.90
2017-09-24T23:13:09.239Z,99.90
2017-09-24T23:15:37.672Z,99.90
2017-09-24T23:18:05.312Z,99.90
2017-09-24T23:20:32.942Z,99.90
2017-09-24T23:23:00.599Z,99.90
2017-09-24T23:25:28.232Z,99.90
2017-09-24T23:27:55.863Z,99.90
2017-09-24T23:30:23.536Z,99.90
2017-09-24T23:32:51.171Z,99.90
2017-09-24T23:35:18.799Z,99.90
2017-09-24T23:37:46.460Z,99.90
2017-09-24T23:40:14.092Z,99.90
2017-09-24T23:42:41.723Z,99.90
2017-09-24T23:45:10.147Z,99.90
2017-09-24T23:47:37.780Z,99.90
2017-09-24T23:50:05.414Z,99.90
2017-09-24T23:52:33.071Z,99.90
2017-09-24T23:55:00.707Z,99.90
2017-09-24T23:57:28.347Z,99.90
2017-09-24T23:59:56.052Z,99.90
